Time;durP1;ratioP1;P1;durP2;ratioP2;P2;SDS_P1;SDS_P2;PMS_P1;PMS_P2;Temp;Humidity;BMP_temperature;BMP_pressure;BME280_temperature;BME280_humidity;BME280_pressure;Samples;Min_cycle;Max_cycle;Signal;HPM_P1;HPM_P2
2023/07/08 00:01:49;;;;;;;2.85;2.10;;;21.60;77.30;;;;;;5092515;28;20044;-41
2023/07/08 00:04:16;;;;;;;4.18;2.50;;;22.50;67.20;;;;;;5090286;28;20119;-41
2023/07/08 00:06:42;;;;;;;3.00;2.15;;;21.60;64.50;;;;;;5091370;28;20127;-40
2023/07/08 00:09:11;;;;;;;3.20;2.10;;;21.40;77.00;;;;;;5088347;28;20105;-40
2023/07/08 00:11:38;;;;;;;2.88;2.20;;;;;;;;;;5071850;28;20106;-41
2023/07/08 00:14:05;;;;;;;2.60;2.33;;;;;;;;;;5071944;28;20123;-39
2023/07/08 00:16:31;;;;;;;3.05;2.28;;;21.40;77.90;;;;;;5071962;28;20127;-41
2023/07/08 00:19:00;;;;;;;3.53;2.42;;;21.60;61.00;;;;;;5071710;28;20118;-37
2023/07/08 00:21:27;;;;;;;3.03;2.30;;;;;;;;;;5089574;28;20058;-37
2023/07/08 00:23:55;;;;;;;3.17;2.30;;;;;;;;;;5091876;28;20048;-40
2023/07/08 00:26:23;;;;;;;3.92;2.45;;;21.70;77.70;;;;;;5091928;28;20515;-41
2023/07/08 00:28:50;;;;;;;3.63;2.78;;;22.10;73.20;;;;;;5092136;28;20051;-40
2023/07/08 00:31:23;;;;;;;2.95;2.40;;;;;;;;;;5091769;28;20547;-38
2023/07/08 00:33:50;;;;;;;3.22;2.08;;;21.60;78.10;;;;;;5091714;28;20071;-41
2023/07/08 00:36:18;;;;;;;2.95;2.20;;;21.90;77.30;;;;;;5089625;28;20043;-40
2023/07/08 00:38:45;;;;;;;2.45;2.20;;;21.50;77.60;;;;;;5091793;28;20048;-41
2023/07/08 00:41:13;;;;;;;3.20;2.25;;;21.30;77.90;;;;;;5091891;28;20131;-41
2023/07/08 00:43:40;;;;;;;2.80;2.10;;;21.30;70.40;;;;;;5091731;28;20054;-41
2023/07/08 00:46:14;;;;;;;3.03;2.40;;;21.90;77.50;;;;;;5091738;28;20051;-41
2023/07/08 00:48:41;;;;;;;3.95;2.25;;;;;;;;;;5091828;28;20052;-41
2023/07/08 00:51:10;;;;;;;3.20;2.28;;;21.70;63.70;;;;;;5091559;28;20052;-39
2023/07/08 00:53:38;;;;;;;3.03;2.30;;;22.30;77.70;;;;;;5073430;28;20053;-37
2023/07/08 00:56:07;;;;;;;3.05;2.33;;;22.10;61.20;;;;;;5071611;28;20472;-41
2023/07/08 00:58:35;;;;;;;3.53;2.35;;;21.70;78.20;;;;;;5071626;28;20139;-40
2023/07/08 01:01:03;;;;;;;3.05;2.40;;;21.70;66.00;;;;;;5071503;28;20143;-40
2023/07/08 01:03:29;;;;;;;3.10;2.28;;;21.20;77.80;;;;;;5071069;28;20140;-41
2023/07/08 01:05:59;;;;;;;3.65;2.38;;;21.60;60.90;;;;;;5092370;28;20048;-41
2023/07/08 01:08:28;;;;;;;2.78;2.20;;;21.80;77.30;;;;;;5094889;28;20101;-41
2023/07/08 01:10:59;;;;;;;2.45;2.15;;;21.60;60.90;;;;;;5095708;28;20127;-41
2023/07/08 01:13:25;;;;;;;3.75;2.40;;;20.60;76.80;;;;;;5095347;28;20412;-41
2023/07/08 01:15:52;;;;;;;3.38;2.40;;;;;;;;;;5095376;28;20126;-37
2023/07/08 01:18:21;;;;;;;2.90;2.50;;;21.80;77.40;;;;;;5095236;28;20055;-40
2023/07/08 01:20:48;;;;;;;2.67;2.40;;;20.40;74.00;;;;;;5095452;28;20046;-41
2023/07/08 01:23:16;;;;;;;2.60;2.28;;;22.40;63.60;;;;;;5095337;28;20048;-39
2023/07/08 01:25:43;;;;;;;3.00;2.35;;;;;;;;;;5078695;28;20398;-39
2023/07/08 01:28:10;;;;;;;2.97;2.30;;;21.80;78.20;;;;;;5075087;28;20135;-41
2023/07/08 01:30:37;;;;;;;2.67;2.35;;;;;;;;;;5074522;28;20496;-36
2023/07/08 01:33:06;;;;;;;3.38;2.40;;;21.40;77.10;;;;;;5074674;28;20470;-40
2023/07/08 01:35:32;;;;;;;3.75;2.20;;;20.60;77.00;;;;;;5074827;28;20131;-40
2023/07/08 01:38:00;;;;;;;3.55;2.63;;;21.50;63.40;;;;;;5081052;28;20054;-37
2023/07/08 01:40:30;;;;;;;2.90;2.22;;;21.10;61.00;;;;;;5074753;28;20497;-38
2023/07/08 01:42:57;;;;;;;2.80;2.42;;;22.50;61.40;;;;;;5074688;28;20051;-37
2023/07/08 01:45:26;;;;;;;3.50;2.30;;;22.50;70.20;;;;;;5074341;28;20132;-40
2023/07/08 01:47:56;;;;;;;3.25;2.40;;;21.60;60.90;;;;;;5074791;28;20088;-37
2023/07/08 01:50:22;;;;;;;3.58;2.10;;;22.00;72.30;;;;;;5076476;28;20469;-41
2023/07/08 01:52:50;;;;;;;2.63;2.22;;;;;;;;;;5094583;28;20052;-36
2023/07/08 01:55:16;;;;;;;2.33;2.00;;;21.20;77.00;;;;;;5094767;28;20548;-41
2023/07/08 01:57:44;;;;;;;3.97;2.50;;;20.90;77.60;;;;;;5094560;28;20044;-40
2023/07/08 02:00:13;;;;;;;3.83;2.40;;;21.70;77.50;;;;;;5094411;28;20736;-41
2023/07/08 02:02:39;;;;;;;3.13;2.15;;;21.60;77.50;;;;;;5094616;28;20123;-40
2023/07/08 02:05:06;;;;;;;3.67;2.30;;;;;;;;;;5094512;28;20123;-41
2023/07/08 02:07:33;;;;;;;2.60;2.00;;;22.00;78.20;;;;;;5084290;28;20050;-40
2023/07/08 02:10:00;;;;;;;2.83;2.20;;;;;;;;;;5074258;28;20401;-36
2023/07/08 02:12:27;;;;;;;3.40;2.40;;;21.30;77.80;;;;;;5079399;28;20123;-41
2023/07/08 02:14:55;;;;;;;2.60;2.15;;;21.00;77.30;;;;;;5093882;28;20139;-41
2023/07/08 02:17:22;;;;;;;3.10;2.50;;;;;;;;;;5094570;28;20128;-41
2023/07/08 02:19:49;;;;;;;2.58;2.25;;;21.70;77.00;;;;;;5094155;28;20055;-39
2023/07/08 02:22:16;;;;;;;2.30;2.03;;;;;;;;;;5094075;28;20131;-41
2023/07/08 02:24:42;;;;;;;2.88;2.20;;;21.40;63.70;;;;;;5077399;28;20058;-38
2023/07/08 02:27:09;;;;;;;2.90;2.08;;;21.20;77.40;;;;;;5074290;28;20136;-40
2023/07/08 02:29:37;;;;;;;2.72;2.22;;;;;;;;;;5074009;28;20052;-41
2023/07/08 02:32:06;;;;;;;3.83;2.45;;;21.40;77.40;;;;;;5079798;28;20516;-41
2023/07/08 02:34:33;;;;;;;2.92;2.20;;;20.70;77.60;;;;;;5094159;28;20045;-41
2023/07/08 02:37:00;;;;;;;3.38;2.30;;;21.60;77.30;;;;;;5093637;28;20127;-41
2023/07/08 02:39:26;;;;;;;2.95;2.25;;;20.70;76.80;;;;;;5089057;28;20127;-41
2023/07/08 02:41:53;;;;;;;2.70;2.45;;;21.10;72.00;;;;;;5073968;28;20128;-39
2023/07/08 02:44:20;;;;;;;2.72;2.05;;;20.50;77.00;;;;;;5073469;28;20052;-40
2023/07/08 02:46:46;;;;;;;3.00;2.30;;;21.50;78.00;;;;;;5073708;28;20176;-41
2023/07/08 02:49:15;;;;;;;3.42;2.40;;;21.60;67.50;;;;;;5073537;28;20084;-39
2023/07/08 02:51:41;;;;;;;3.60;2.20;;;22.00;65.90;;;;;;5073445;28;20128;-39
2023/07/08 02:54:08;;;;;;;2.67;2.33;;;22.50;77.70;;;;;;5073121;28;20131;-41
2023/07/08 02:56:35;;;;;;;2.88;2.17;;;20.50;76.70;;;;;;5087029;28;20130;-40
2023/07/08 02:59:02;;;;;;;3.78;2.38;;;;;;;;;;5093822;28;20134;-38
2023/07/08 03:01:28;;;;;;;2.55;2.10;;;21.70;78.10;;;;;;5093631;28;20130;-40
2023/07/08 03:03:56;;;;;;;3.30;2.30;;;21.50;77.90;;;;;;5093215;28;20131;-41
2023/07/08 03:06:25;;;;;;;3.97;2.40;;;21.60;61.10;;;;;;5093353;28;20074;-40
2023/07/08 03:08:52;;;;;;;3.05;2.40;;;;;;;;;;5093569;28;20048;-37
2023/07/08 03:11:19;;;;;;;3.25;2.20;;;21.20;77.10;;;;;;5089650;28;20132;-40
2023/07/08 03:13:46;;;;;;;3.30;2.50;;;;;;;;;;5073023;28;20127;-37
2023/07/08 03:16:13;;;;;;;2.88;2.30;;;20.90;77.60;;;;;;5072971;28;20132;-40
2023/07/08 03:18:45;;;;;;;4.22;2.22;;;21.40;77.10;;;;;;5072744;28;20052;-41
2023/07/08 03:21:13;;;;;;;2.78;2.10;;;20.80;64.80;;;;;;5072904;28;20566;-40
2023/07/08 03:23:41;;;;;;;2.67;2.15;;;21.90;77.70;;;;;;5072653;28;20055;-39
2023/07/08 03:26:08;;;;;;;2.58;2.13;;;20.50;76.70;;;;;;5072716;28;20157;-40
2023/07/08 03:28:34;;;;;;;3.83;2.50;;;22.50;63.20;;;;;;5075788;28;20139;-38
2023/07/08 03:31:01;;;;;;;3.25;2.30;;;21.50;77.90;;;;;;5078632;28;20424;-40
2023/07/08 03:33:28;;;;;;;2.67;2.22;;;21.60;77.20;;;;;;5075061;28;20138;-37
2023/07/08 03:35:56;;;;;;;2.38;2.10;;;21.70;77.60;;;;;;5072682;28;20055;-39
2023/07/08 03:38:23;;;;;;;3.25;2.40;;;;;;;;;;5093068;28;20070;-35
2023/07/08 03:40:51;;;;;;;2.70;2.30;;;21.80;77.30;;;;;;5092843;28;20123;-39
2023/07/08 03:43:17;;;;;;;3.25;2.55;;;21.00;63.60;;;;;;5092602;28;20048;-40
2023/07/08 03:45:44;;;;;;;2.88;2.40;;;21.30;77.40;;;;;;5091538;28;20066;-36
2023/07/08 03:48:11;;;;;;;2.88;2.30;;;21.90;67.70;;;;;;5092481;28;20135;-36
2023/07/08 03:50:38;;;;;;;3.88;2.42;;;;;;;;;;5092731;28;20044;-37
2023/07/08 03:53:05;;;;;;;4.72;2.60;;;;;;;;;;5092407;28;20483;-34
2023/07/08 03:55:32;;;;;;;3.03;2.45;;;20.90;77.70;;;;;;5092620;28;20130;-37
2023/07/08 03:58:00;;;;;;;3.38;2.30;;;22.00;78.20;;;;;;5092395;28;20134;-39
2023/07/08 04:00:27;;;;;;;3.22;2.45;;;21.00;77.30;;;;;;5090476;28;20135;-38
2023/07/08 04:02:54;;;;;;;2.92;2.38;;;;;;;;;;5082695;28;20423;-35
2023/07/08 04:05:21;;;;;;;4.72;2.85;;;21.10;76.90;;;;;;5079113;28;20135;-37
2023/07/08 04:07:48;;;;;;;3.13;2.55;;;21.00;77.60;;;;;;5092282;28;20450;-38
2023/07/08 04:10:16;;;;;;;3.08;2.55;;;20.90;77.00;;;;;;5091534;28;20138;-38
2023/07/08 04:12:43;;;;;;;3.38;2.72;;;;;;;;;;5091809;28;20442;-38
2023/07/08 04:15:12;;;;;;;3.00;2.30;;;21.10;65.50;;;;;;5092046;28;20134;-35
2023/07/08 04:17:40;;;;;;;3.58;2.70;;;21.20;76.90;;;;;;5091259;28;20134;-39
2023/07/08 04:20:09;;;;;;;3.13;2.25;;;20.10;76.50;;;;;;5092215;28;20059;-40
2023/07/08 04:22:37;;;;;;;2.72;2.38;;;21.90;78.30;;;;;;5092012;28;20094;-37
2023/07/08 04:25:05;;;;;;;2.85;2.20;;;21.40;78.00;;;;;;5091985;28;20126;-37
2023/07/08 04:27:32;;;;;;;2.95;2.40;;;;;;;;;;5092080;28;20075;-35
2023/07/08 04:29:59;;;;;;;3.08;2.20;;;20.90;77.70;;;;;;5092050;28;20155;-37
2023/07/08 04:32:27;;;;;;;3.42;2.40;;;21.60;78.10;;;;;;5090030;28;20040;-36
2023/07/08 04:34:55;;;;;;;2.97;2.25;;;;;;;;;;5091819;28;20458;-36
2023/07/08 04:37:21;;;;;;;2.90;2.60;;;20.80;77.30;;;;;;5091402;28;20151;-37
2023/07/08 04:39:48;;;;;;;3.33;2.28;;;21.40;77.50;;;;;;5091819;28;20136;-40
2023/07/08 04:42:17;;;;;;;2.75;2.30;;;21.60;65.20;;;;;;5091578;28;20460;-35
2023/07/08 04:44:43;;;;;;;3.30;2.53;;;21.30;63.40;;;;;;5091794;28;21370;-37
2023/07/08 04:47:13;;;;;;;3.10;2.25;;;22.40;77.70;;;;;;5092159;28;20135;-37
2023/07/08 04:49:43;;;;;;;3.33;2.40;;;21.40;60.80;;;;;;5073861;28;20060;-32
2023/07/08 04:52:10;;;;;;;3.42;2.22;;;20.30;74.60;;;;;;5071685;28;20205;-33
2023/07/08 04:54:37;;;;;;;3.30;2.50;;;;;;;;;;5071040;28;20863;-34
2023/07/08 04:57:04;;;;;;;2.58;2.25;;;21.40;77.60;;;;;;5071441;28;20123;-31
2023/07/08 04:59:34;;;;;;;2.97;2.67;;;21.60;63.70;;;;;;5071534;28;20045;-35
2023/07/08 05:02:01;;;;;;;2.58;2.22;;;21.20;77.90;;;;;;5082989;28;20093;-32
2023/07/08 05:04:27;;;;;;;2.70;2.25;;;21.80;67.80;;;;;;5091346;28;20123;-32
2023/07/08 05:06:55;;;;;;;3.42;2.30;;;22.30;77.60;;;;;;5091599;28;20484;-31
2023/07/08 05:09:25;;;;;;;2.55;2.35;;;22.30;78.00;;;;;;5091287;28;20047;-31
2023/07/08 05:11:52;;;;;;;2.60;2.22;;;21.60;71.80;;;;;;5091487;28;20044;-32
2023/07/08 05:14:19;;;;;;;2.58;2.13;;;21.70;77.70;;;;;;5091361;28;20580;-33
2023/07/08 05:16:46;;;;;;;2.72;2.20;;;;;;;;;;5076845;28;20131;-37
2023/07/08 05:19:12;;;;;;;3.60;2.55;;;21.30;78.00;;;;;;5071218;28;20456;-31
2023/07/08 05:21:39;;;;;;;2.80;2.30;;;21.30;77.20;;;;;;5071296;28;20128;-32
2023/07/08 05:24:07;;;;;;;3.92;2.70;;;21.50;64.90;;;;;;5070934;28;20508;-32
2023/07/08 05:26:34;;;;;;;3.15;2.38;;;21.30;73.30;;;;;;5071307;28;20135;-31
2023/07/08 05:29:01;;;;;;;3.38;2.38;;;21.30;77.20;;;;;;5071302;28;20135;-32
2023/07/08 05:31:28;;;;;;;3.40;2.35;;;22.20;61.30;;;;;;5072397;28;20037;-32
2023/07/08 05:33:54;;;;;;;2.53;2.15;;;21.10;74.30;;;;;;5070616;28;20048;-31
2023/07/08 05:36:21;;;;;;;2.75;2.30;;;21.70;77.50;;;;;;5075081;28;20131;-32
2023/07/08 05:38:48;;;;;;;3.28;2.30;;;21.50;77.70;;;;;;5091249;28;20150;-32
2023/07/08 05:41:16;;;;;;;2.92;2.30;;;20.40;67.00;;;;;;5091367;28;20127;-32
2023/07/08 05:43:42;;;;;;;2.50;2.30;;;21.20;65.50;;;;;;5091208;28;20127;-32
2023/07/08 05:46:09;;;;;;;3.38;2.17;;;21.50;77.30;;;;;;5090155;28;20130;-33
2023/07/08 05:48:36;;;;;;;2.70;2.13;;;22.30;61.40;;;;;;5091269;28;20480;-31
2023/07/08 05:51:03;;;;;;;2.70;2.25;;;;;;;;;;5092921;28;20511;-32
2023/07/08 05:53:30;;;;;;;2.90;2.30;;;20.80;77.10;;;;;;5094895;28;20150;-32
2023/07/08 05:55:57;;;;;;;2.90;2.28;;;21.90;64.50;;;;;;5094706;28;20126;-35
2023/07/08 05:58:25;;;;;;;2.58;2.08;;;20.80;77.40;;;;;;5094532;28;20131;-32
2023/07/08 06:00:56;;;;;;;3.22;2.22;;;21.30;60.90;;;;;;5094695;28;20500;-31
2023/07/08 06:03:23;;;;;;;3.00;2.25;;;21.40;77.50;;;;;;5075987;28;20060;-30
2023/07/08 06:05:50;;;;;;;3.15;2.20;;;21.40;76.70;;;;;;5090375;28;20044;-31
2023/07/08 06:08:17;;;;;;;3.10;2.30;;;20.30;76.60;;;;;;5094508;28;20044;-31
2023/07/08 06:10:44;;;;;;;4.20;2.22;;;;;;;;;;5094580;28;20051;-32
2023/07/08 06:13:11;;;;;;;2.80;1.90;;;21.50;78.30;;;;;;5094198;28;20043;-30
2023/07/08 06:15:39;;;;;;;2.92;2.20;;;21.70;72.60;;;;;;5094136;28;20047;-32
2023/07/08 06:18:06;;;;;;;3.58;2.20;;;;;;;;;;5093046;28;20054;-33
2023/07/08 06:20:33;;;;;;;3.20;2.35;;;21.10;78.10;;;;;;5088812;28;20079;-30
2023/07/08 06:23:00;;;;;;;2.80;2.35;;;;;;;;;;5094132;28;20044;-33
2023/07/08 06:25:27;;;;;;;2.00;1.80;;;21.00;77.30;;;;;;5091712;28;20457;-31
2023/07/08 06:27:54;;;;;;;2.60;2.40;;;;;;;;;;5090315;28;20054;-33
2023/07/08 06:30:20;;;;;;;3.20;2.60;;;22.40;78.30;;;;;;5094202;28;20044;-32
2023/07/08 06:32:48;;;;;;;3.20;2.30;;;21.50;77.60;;;;;;5093755;28;20126;-31
2023/07/08 06:35:15;;;;;;;2.88;2.20;;;21.20;77.50;;;;;;5093042;28;20501;-31
2023/07/08 06:37:42;;;;;;;3.40;2.40;;;;;;;;;;5093370;28;20521;-34
2023/07/08 06:40:10;;;;;;;2.25;1.95;;;21.00;78.00;;;;;;5093944;28;20497;-31
2023/07/08 06:42:36;;;;;;;2.97;2.03;;;21.90;71.40;;;;;;5089558;28;20116;-32
2023/07/08 06:45:04;;;;;;;3.17;2.40;;;20.60;77.90;;;;;;5089153;28;20048;-31
2023/07/08 06:47:31;;;;;;;3.30;2.30;;;;;;;;;;5093801;28;20139;-35
2023/07/08 06:49:59;;;;;;;3.05;2.30;;;21.90;78.60;;;;;;5092439;28;20040;-31
2023/07/08 06:52:26;;;;;;;3.00;2.50;;;21.20;77.20;;;;;;5093376;28;20044;-32
2023/07/08 06:54:53;;;;;;;2.60;2.30;;;;;;;;;;5093485;28;20595;-35
2023/07/08 06:57:19;;;;;;;2.60;2.22;;;21.50;77.80;;;;;;5093608;28;20493;-31
2023/07/08 06:59:46;;;;;;;4.03;2.22;;;21.50;77.50;;;;;;5083956;28;20049;-31
2023/07/08 07:02:13;;;;;;;2.78;2.10;;;;;;;;;;5073034;28;20040;-35
2023/07/08 07:04:40;;;;;;;2.50;2.10;;;22.10;77.80;;;;;;5079692;28;20044;-31
2023/07/08 07:07:08;;;;;;;3.30;2.30;;;21.40;61.00;;;;;;5077524;28;20136;-36
2023/07/08 07:09:35;;;;;;;7.03;2.47;;;;;;;;;;5073202;28;20123;-36
2023/07/08 07:12:02;;;;;;;2.65;2.10;;;21.60;77.80;;;;;;5073102;28;20133;-31
2023/07/08 07:14:29;;;;;;;3.67;2.15;;;22.40;77.90;;;;;;5072827;28;20098;-31
2023/07/08 07:16:56;;;;;;;2.63;2.10;;;;;;;;;;5073318;28;20142;-34
2023/07/08 07:19:22;;;;;;;3.25;2.25;;;21.40;77.60;;;;;;5072777;28;20562;-31
2023/07/08 07:21:50;;;;;;;3.67;2.20;;;;;;;;;;5074105;28;20569;-36
2023/07/08 07:24:18;;;;;;;2.63;2.22;;;21.20;77.20;;;;;;5072706;28;20560;-31
2023/07/08 07:26:44;;;;;;;3.58;2.17;;;21.40;78.00;;;;;;5072847;28;20132;-34
2023/07/08 07:29:11;;;;;;;2.88;2.08;;;21.10;77.90;;;;;;5072556;28;20056;-31
2023/07/08 07:31:39;;;;;;;3.67;2.25;;;21.90;76.30;;;;;;5072969;28;20129;-33
2023/07/08 07:34:06;;;;;;;4.15;2.28;;;21.10;65.20;;;;;;5072624;28;20410;-33
2023/07/08 07:36:33;;;;;;;2.67;2.10;;;;;;;;;;5078026;28;20504;-38
2023/07/08 07:39:00;;;;;;;2.67;1.90;;;;;;;;;;5091905;28;20501;-35
2023/07/08 07:41:28;;;;;;;2.35;2.10;;;22.00;67.60;;;;;;5092174;28;20126;-31
2023/07/08 07:43:55;;;;;;;2.67;2.13;;;22.10;77.40;;;;;;5092631;28;20135;-31
2023/07/08 07:46:22;;;;;;;2.70;2.20;;;22.20;77.70;;;;;;5092858;28;20143;-32
2023/07/08 07:48:49;;;;;;;2.80;2.35;;;21.20;77.40;;;;;;5092517;28;20127;-32
2023/07/08 07:51:16;;;;;;;4.20;3.05;;;21.70;76.90;;;;;;5090819;28;20127;-31
2023/07/08 07:53:43;;;;;;;2.45;2.25;;;;;;;;;;5078470;28;20055;-36
2023/07/08 07:56:09;;;;;;;3.65;1.90;;;21.80;78.10;;;;;;5083999;28;20126;-31
2023/07/08 07:58:37;;;;;;;2.47;2.05;;;21.60;77.20;;;;;;5092666;28;20616;-31
2023/07/08 08:01:06;;;;;;;2.65;2.00;;;;;;;;;;5092579;28;20610;-36
2023/07/08 08:03:33;;;;;;;2.95;2.20;;;21.60;60.90;;;;;;5071764;28;20047;-35
2023/07/08 08:05:59;;;;;;;2.78;2.30;;;22.60;77.60;;;;;;5083960;28;20127;-32
2023/07/08 08:08:26;;;;;;;2.20;1.90;;;22.00;77.50;;;;;;5092711;28;20468;-31
2023/07/08 08:10:53;;;;;;;2.40;2.10;;;;;;;;;;5092244;28;20139;-34
2023/07/08 08:13:20;;;;;;;2.75;2.10;;;;;;;;;;5091455;28;20054;-43
2023/07/08 08:15:48;;;;;;;3.40;1.90;;;21.60;60.80;;;;;;5071958;28;20131;-36
2023/07/08 08:18:15;;;;;;;2.20;1.95;;;;;;;;;;5072101;28;20446;-36
2023/07/08 08:20:42;;;;;;;2.67;2.35;;;21.30;77.10;;;;;;5072084;28;20078;-31
2023/07/08 08:23:09;;;;;;;2.95;2.05;;;21.80;77.90;;;;;;5071975;28;20127;-32
2023/07/08 08:25:36;;;;;;;2.88;2.20;;;;;;;;;;5071831;28;20561;-34
2023/07/08 08:28:02;;;;;;;2.40;1.90;;;21.40;75.90;;;;;;5072059;28;20478;-31
2023/07/08 08:30:29;;;;;;;2.47;2.00;;;;;;;;;;5071434;28;20079;-32
2023/07/08 08:32:58;;;;;;;2.47;2.20;;;21.10;77.50;;;;;;5071459;28;20044;-32
2023/07/08 08:35:24;;;;;;;2.60;2.40;;;21.80;78.00;;;;;;5070958;28;20135;-32
2023/07/08 08:37:51;;;;;;;3.08;2.08;;;22.50;77.90;;;;;;5088012;28;20497;-32
2023/07/08 08:40:18;;;;;;;3.75;2.00;;;21.70;60.90;;;;;;5087506;28;20127;-35
2023/07/08 08:42:48;;;;;;;2.00;1.80;;;21.60;77.20;;;;;;5081207;28;20501;-33
2023/07/08 08:45:17;;;;;;;2.65;1.92;;;22.60;78.00;;;;;;5072275;28;20131;-32
2023/07/08 08:47:45;;;;;;;2.33;1.85;;;21.80;62.90;;;;;;5089841;28;20047;-34
2023/07/08 08:50:26;;;;;;;4.20;1.83;;;21.90;63.10;;;;;;5091791;28;20055;-36
2023/07/08 08:52:54;;;;;;;3.97;2.05;;;21.50;77.30;;;;;;5091685;28;20484;-32
2023/07/08 08:55:21;;;;;;;2.35;1.85;;;21.70;77.80;;;;;;5071459;28;20466;-33
2023/07/08 08:57:50;;;;;;;3.13;1.90;;;21.80;61.00;;;;;;5071579;28;20079;-36
2023/07/08 09:00:19;;;;;;;5.45;2.13;;;21.80;66.70;;;;;;5071512;28;20051;-33
2023/07/08 09:02:52;;;;;;;3.30;2.22;;;21.80;77.10;;;;;;5071120;28;20131;-33
2023/07/08 09:05:20;;;;;;;3.92;2.03;;;21.80;60.80;;;;;;5078685;28;20041;-37
2023/07/08 09:07:59;;;;;;;4.47;2.00;;;21.80;60.80;;;;;;5075481;28;20457;-35
2023/07/08 09:10:43;;;;;;;3.00;2.30;;;21.80;60.90;;;;;;5071348;28;20040;-34
2023/07/08 09:13:12;;;;;;;2.53;2.00;;;21.80;60.90;;;;;;5081310;28;20047;-33
2023/07/08 09:15:38;;;;;;;3.10;1.90;;;21.00;76.60;;;;;;5091820;28;20127;-32
2023/07/08 09:18:14;;;;;;;3.67;1.92;;;22.10;66.50;;;;;;5091464;28;20124;-32
2023/07/08 09:20:43;;;;;;;3.17;2.03;;;21.90;77.30;;;;;;5091843;28;20143;-32
2023/07/08 09:23:16;;;;;;;3.00;2.10;;;22.00;77.90;;;;;;5082363;28;20513;-32
2023/07/08 09:25:44;;;;;;;4.32;2.20;;;22.50;77.40;;;;;;5073078;28;20048;-32
2023/07/08 09:28:13;;;;;;;3.08;1.95;;;22.40;78.10;;;;;;5075351;28;20079;-32
2023/07/08 09:30:40;;;;;;;4.32;2.15;;;22.10;73.70;;;;;;5075068;28;20127;-40
2023/07/08 09:33:07;;;;;;;4.28;2.55;;;22.80;78.00;;;;;;5074844;28;20128;-40
2023/07/08 09:35:39;;;;;;;4.32;2.28;;;22.40;76.70;;;;;;5074939;28;20131;-39
2023/07/08 09:38:09;;;;;;;3.83;2.20;;;22.70;69.00;;;;;;5093604;28;20134;-39
2023/07/08 09:40:35;;;;;;;3.45;2.20;;;21.40;77.30;;;;;;5079037;28;20040;-40
2023/07/08 09:43:03;;;;;;;3.60;2.30;;;22.20;60.90;;;;;;5094989;28;20469;-41
2023/07/08 09:45:30;;;;;;;3.25;2.28;;;22.10;60.80;;;;;;5095164;28;20150;-38
2023/07/08 09:47:57;;;;;;;3.30;2.10;;;22.00;77.50;;;;;;5095069;28;20135;-40
2023/07/08 09:50:24;;;;;;;3.08;1.98;;;;;;;;;;5094957;28;20048;-36
2023/07/08 09:52:53;;;;;;;3.47;2.30;;;22.00;77.10;;;;;;5094771;28;20052;-40
2023/07/08 09:55:21;;;;;;;2.92;2.38;;;22.10;60.70;;;;;;5094427;28;20052;-37
2023/07/08 09:57:49;;;;;;;3.67;2.08;;;22.10;60.70;;;;;;5082307;28;20127;-37
2023/07/08 10:00:16;;;;;;;4.05;2.30;;;23.00;77.20;;;;;;5074517;28;20056;-39
2023/07/08 10:02:44;;;;;;;4.07;2.10;;;22.10;60.60;;;;;;5074364;28;20127;-40
2023/07/08 10:05:18;;;;;;;2.42;1.95;;;22.40;77.60;;;;;;5085229;28;20076;-40
2023/07/08 10:07:45;;;;;;;3.53;1.98;;;22.10;60.60;;;;;;5094634;28;20511;-37
2023/07/08 10:10:15;;;;;;;4.82;2.30;;;22.20;77.10;;;;;;5092282;28;20052;-38
2023/07/08 10:12:56;;;;;;;5.00;2.30;;;22.40;77.60;;;;;;5073996;28;20053;-40
2023/07/08 10:15:24;;;;;;;5.15;2.00;;;22.10;60.60;;;;;;5074299;28;20136;-37
2023/07/08 10:17:51;;;;;;;2.67;2.13;;;22.00;76.40;;;;;;5074210;28;20135;-40
2023/07/08 10:20:18;;;;;;;2.28;2.00;;;21.50;76.30;;;;;;5074166;28;20123;-39
2023/07/08 10:22:50;;;;;;;3.35;2.30;;;22.30;76.60;;;;;;5074137;28;20407;-40
2023/07/08 10:25:27;;;;;;;3.15;2.08;;;22.20;60.50;;;;;;5074234;28;20132;-35
2023/07/08 10:27:58;;;;;;;4.13;2.20;;;21.10;74.90;;;;;;5075151;28;20062;-31
2023/07/08 10:30:26;;;;;;;3.03;2.03;;;23.20;77.40;;;;;;5089942;28;20048;-32
2023/07/08 10:33:13;;;;;;;3.05;2.33;;;22.00;76.50;;;;;;5094226;28;20047;-32
2023/07/08 10:35:42;;;;;;;2.63;2.10;;;22.50;64.60;;;;;;5093372;28;20485;-33
2023/07/08 10:38:28;;;;;;;4.25;2.15;;;22.00;76.50;;;;;;5093595;28;20048;-32
2023/07/08 10:40:55;;;;;;;3.47;2.17;;;22.30;76.90;;;;;;5094189;28;20050;-32
2023/07/08 10:43:38;;;;;;;3.70;2.08;;;22.20;60.40;;;;;;5088042;28;20044;-35
2023/07/08 10:46:15;;;;;;;2.65;2.13;;;21.80;77.00;;;;;;5073749;28;20127;-32
2023/07/08 10:49:00;;;;;;;2.78;1.98;;;22.20;60.40;;;;;;5073821;28;20131;-33
2023/07/08 10:51:33;;;;;;;2.45;2.00;;;22.30;60.50;;;;;;5073671;28;20131;-31
2023/07/08 10:54:14;;;;;;;3.25;2.13;;;22.10;76.40;;;;;;5073343;28;20549;-31
2023/07/08 10:56:47;;;;;;;3.83;2.10;;;22.60;76.70;;;;;;5073586;28;20084;-31
2023/07/08 10:59:37;;;;;;;2.13;1.83;;;22.30;76.90;;;;;;5074717;28;20052;-32
2023/07/08 11:02:25;;;;;;;3.08;2.10;;;21.90;76.20;;;;;;5087212;28;20477;-31
2023/07/08 11:04:57;;;;;;;4.40;2.05;;;22.60;77.40;;;;;;5093581;28;20127;-31
2023/07/08 11:07:30;;;;;;;2.88;2.00;;;22.20;76.70;;;;;;5093503;28;20052;-31
2023/07/08 11:09:59;;;;;;;2.53;2.00;;;21.70;76.00;;;;;;5093540;28;20132;-34
2023/07/08 11:12:28;;;;;;;2.55;1.90;;;22.20;76.30;;;;;;5093092;28;20135;-31
2023/07/08 11:14:59;;;;;;;3.17;2.10;;;21.90;76.40;;;;;;5092093;28;20234;-37
2023/07/08 11:17:28;;;;;;;2.83;2.00;;;22.20;77.10;;;;;;5073239;28;20131;-39
2023/07/08 11:19:58;;;;;;;4.28;2.30;;;23.30;77.20;;;;;;5073098;28;20260;-36
2023/07/08 11:22:25;;;;;;;2.97;1.98;;;22.70;76.50;;;;;;5072743;28;20058;-35
2023/07/08 11:24:52;;;;;;;3.67;2.10;;;22.20;76.60;;;;;;5072446;28;20044;-37
2023/07/08 11:27:24;;;;;;;2.47;2.00;;;21.80;69.80;;;;;;5072933;28;20091;-40
2023/07/08 11:29:52;;;;;;;3.15;2.25;;;22.80;76.50;;;;;;5072876;28;20050;-40
2023/07/08 11:32:21;;;;;;;2.75;2.20;;;22.40;60.30;;;;;;5080552;28;20067;-37
2023/07/08 11:34:51;;;;;;;3.38;1.88;;;22.50;77.10;;;;;;5092491;28;20123;-39
2023/07/08 11:37:18;;;;;;;3.00;1.95;;;23.20;68.00;;;;;;5092290;28;20048;-40
2023/07/08 11:39:46;;;;;;;3.47;2.00;;;22.90;77.20;;;;;;5084756;28;20048;-40
2023/07/08 11:42:17;;;;;;;2.33;2.10;;;22.60;76.80;;;;;;5080079;28;20132;-41
2023/07/08 11:44:47;;;;;;;2.58;2.10;;;22.50;60.30;;;;;;5081589;28;20446;-38
2023/07/08 11:47:16;;;;;;;3.35;1.77;;;22.50;60.30;;;;;;5087638;28;20573;-37
2023/07/08 11:49:44;;;;;;;2.95;1.95;;;22.30;76.00;;;;;;5089727;28;20138;-40
2023/07/08 11:52:12;;;;;;;2.45;1.85;;;22.30;73.00;;;;;;5081818;28;20056;-38
2023/07/08 11:54:39;;;;;;;2.75;2.03;;;22.40;77.00;;;;;;5083072;28;20044;-40
2023/07/08 11:57:08;;;;;;;2.72;1.98;;;22.50;60.40;;;;;;5083834;28;20519;-36
2023/07/08 11:59:38;;;;;;;2.38;1.90;;;23.60;77.30;;;;;;5092666;28;20044;-40
2023/07/08 12:02:11;;;;;;;2.75;2.25;;;22.50;60.40;;;;;;5091802;28;20048;-39
2023/07/08 12:04:54;;;;;;;2.25;2.03;;;22.30;76.20;;;;;;5087960;28;20040;-41
2023/07/08 12:07:23;;;;;;;2.58;1.92;;;22.80;77.30;;;;;;5092710;28;20126;-39
2023/07/08 12:09:57;;;;;;;3.67;2.03;;;22.20;76.10;;;;;;5092223;28;20496;-41
2023/07/08 12:12:25;;;;;;;2.40;1.85;;;22.10;75.90;;;;;;5092390;28;20147;-38
2023/07/08 12:14:53;;;;;;;2.92;2.13;;;22.70;76.50;;;;;;5092233;28;20123;-37
2023/07/08 12:17:20;;;;;;;2.97;2.00;;;;;;;;;;5091942;28;20153;-39
2023/07/08 12:19:47;;;;;;;2.63;2.08;;;22.90;76.50;;;;;;5092191;28;20130;-41
2023/07/08 12:22:15;;;;;;;2.20;2.00;;;22.30;77.00;;;;;;5091983;28;20134;-38
2023/07/08 12:24:42;;;;;;;2.55;2.03;;;22.30;76.10;;;;;;5092206;28;20068;-39
2023/07/08 12:27:11;;;;;;;2.83;2.00;;;22.60;60.50;;;;;;5092136;28;20052;-36
2023/07/08 12:29:38;;;;;;;2.53;2.00;;;23.40;66.90;;;;;;5092069;28;20139;-38
2023/07/08 12:32:06;;;;;;;2.35;1.80;;;22.60;70.10;;;;;;5085184;28;20127;-36
2023/07/08 12:34:32;;;;;;;3.28;2.30;;;22.60;76.80;;;;;;5085554;28;20079;-40
2023/07/08 12:36:59;;;;;;;2.85;1.73;;;22.60;63.50;;;;;;5091388;28;20055;-39
2023/07/08 12:39:27;;;;;;;2.78;2.05;;;22.90;76.50;;;;;;5091998;28;20424;-40
2023/07/08 12:41:54;;;;;;;2.75;1.90;;;21.60;75.80;;;;;;5091750;28;20118;-39
2023/07/08 12:44:21;;;;;;;2.78;1.90;;;22.50;76.70;;;;;;5091848;28;20479;-40
2023/07/08 12:46:49;;;;;;;3.22;2.13;;;22.70;71.30;;;;;;5084387;28;20044;-40
2023/07/08 12:49:16;;;;;;;2.45;2.10;;;22.70;60.60;;;;;;5087909;28;20059;-38
2023/07/08 12:51:43;;;;;;;3.08;2.15;;;22.70;76.60;;;;;;5080006;28;20049;-40
2023/07/08 12:54:10;;;;;;;2.78;2.05;;;21.80;75.90;;;;;;5077768;28;20048;-40
2023/07/08 12:56:39;;;;;;;2.20;2.00;;;22.70;76.70;;;;;;5079684;28;20058;-41
2023/07/08 12:59:06;;;;;;;2.03;1.83;;;;;;;;;;5072245;28;20146;-37
2023/07/08 13:01:33;;;;;;;2.63;1.90;;;22.70;60.60;;;;;;5075826;28;20055;-40
2023/07/08 13:04:01;;;;;;;3.00;2.03;;;22.80;60.70;;;;;;5076326;28;20044;-36
2023/07/08 13:06:30;;;;;;;2.33;2.00;;;22.80;60.70;;;;;;5087478;28;20487;-37
2023/07/08 13:09:00;;;;;;;2.30;1.90;;;22.80;60.70;;;;;;5079372;28;20083;-39